sensor_id;sensor_type;location;lat;lon;timestamp;P1;durP1;ratioP1;P2;durP2;ratioP2
32906;SDS011;19259;51.590;5.320;2022-12-18T00:01:33;78.50;;;28.67;;
32906;SDS011;19259;51.590;5.320;2022-12-18T00:03:59;87.62;;;27.22;;
32906;SDS011;19259;51.590;5.320;2022-12-18T00:06:28;75.20;;;26.65;;
32906;SDS011;19259;51.590;5.320;2022-12-18T00:08:57;84.70;;;27.95;;
32906;SDS011;19259;51.590;5.320;2022-12-18T00:11:26;85.03;;;28.90;;
32906;SDS011;19259;51.590;5.320;2022-12-18T00:13:56;90.77;;;29.37;;
32906;SDS011;19259;51.590;5.320;2022-12-18T00:16:25;77.67;;;27.45;;
32906;SDS011;19259;51.590;5.320;2022-12-18T00:18:54;93.12;;;27.48;;
32906;SDS011;19259;51.590;5.320;2022-12-18T00:21:23;79.30;;;27.82;;
32906;SDS011;19259;51.590;5.320;2022-12-18T00:23:51;79.10;;;27.17;;
32906;SDS011;19259;51.590;5.320;2022-12-18T00:26:20;69.05;;;26.05;;
32906;SDS011;19259;51.590;5.320;2022-12-18T00:28:59;80.45;;;27.77;;
32906;SDS011;19259;51.590;5.320;2022-12-18T00:31:29;84.22;;;29.00;;
32906;SDS011;19259;51.590;5.320;2022-12-18T00:33:57;73.95;;;26.50;;
32906;SDS011;19259;51.590;5.320;2022-12-18T00:36:26;75.22;;;26.27;;
32906;SDS011;19259;51.590;5.320;2022-12-18T00:38:59;89.07;;;28.20;;
32906;SDS011;19259;51.590;5.320;2022-12-18T00:41:28;78.72;;;26.55;;
32906;SDS011;19259;51.590;5.320;2022-12-18T00:44:15;91.75;;;27.70;;
32906;SDS011;19259;51.590;5.320;2022-12-18T00:46:43;88.82;;;28.05;;
32906;SDS011;19259;51.590;5.320;2022-12-18T00:49:13;73.00;;;25.05;;
32906;SDS011;19259;51.590;5.320;2022-12-18T00:51:41;89.80;;;28.27;;
32906;SDS011;19259;51.590;5.320;2022-12-18T00:54:09;81.42;;;28.50;;
32906;SDS011;19259;51.590;5.320;2022-12-18T00:56:38;82.90;;;26.70;;
32906;SDS011;19259;51.590;5.320;2022-12-18T00:59:06;74.92;;;26.73;;
32906;SDS011;19259;51.590;5.320;2022-12-18T01:01:33;78.35;;;26.27;;
32906;SDS011;19259;51.590;5.320;2022-12-18T01:04:02;76.05;;;25.90;;
32906;SDS011;19259;51.590;5.320;2022-12-18T01:06:30;85.90;;;26.37;;
32906;SDS011;19259;51.590;5.320;2022-12-18T01:08:57;85.65;;;26.70;;
32906;SDS011;19259;51.590;5.320;2022-12-18T01:11:25;81.60;;;25.57;;
32906;SDS011;19259;51.590;5.320;2022-12-18T01:13:53;77.03;;;25.80;;
32906;SDS011;19259;51.590;5.320;2022-12-18T01:16:21;78.72;;;27.60;;
32906;SDS011;19259;51.590;5.320;2022-12-18T01:18:52;78.90;;;27.70;;
32906;SDS011;19259;51.590;5.320;2022-12-18T01:21:21;91.82;;;26.77;;
32906;SDS011;19259;51.590;5.320;2022-12-18T01:23:53;77.15;;;27.32;;
32906;SDS011;19259;51.590;5.320;2022-12-18T01:26:22;72.17;;;25.47;;
32906;SDS011;19259;51.590;5.320;2022-12-18T01:28:56;78.95;;;27.20;;
32906;SDS011;19259;51.590;5.320;2022-12-18T01:31:25;76.53;;;26.87;;
32906;SDS011;19259;51.590;5.320;2022-12-18T01:33:55;78.92;;;26.50;;
32906;SDS011;19259;51.590;5.320;2022-12-18T01:38:58;73.40;;;26.33;;
32906;SDS011;19259;51.590;5.320;2022-12-18T01:41:28;73.10;;;25.40;;
32906;SDS011;19259;51.590;5.320;2022-12-18T01:47:18;69.30;;;27.25;;
32906;SDS011;19259;51.590;5.320;2022-12-18T01:49:47;73.57;;;24.35;;
32906;SDS011;19259;51.590;5.320;2022-12-18T01:52:15;79.25;;;25.35;;
32906;SDS011;19259;51.590;5.320;2022-12-18T01:54:45;79.20;;;26.02;;
32906;SDS011;19259;51.590;5.320;2022-12-18T01:57:15;78.70;;;25.37;;
32906;SDS011;19259;51.590;5.320;2022-12-18T01:59:43;64.90;;;23.67;;
32906;SDS011;19259;51.590;5.320;2022-12-18T02:02:13;79.97;;;26.80;;
32906;SDS011;19259;51.590;5.320;2022-12-18T02:04:45;70.20;;;22.77;;
32906;SDS011;19259;51.590;5.320;2022-12-18T02:10:17;68.10;;;23.52;;
32906;SDS011;19259;51.590;5.320;2022-12-18T02:15:34;65.42;;;23.83;;
32906;SDS011;19259;51.590;5.320;2022-12-18T02:18:17;78.95;;;24.80;;
32906;SDS011;19259;51.590;5.320;2022-12-18T02:20:44;74.20;;;25.27;;
32906;SDS011;19259;51.590;5.320;2022-12-18T02:23:24;63.90;;;22.32;;
32906;SDS011;19259;51.590;5.320;2022-12-18T02:26:18;64.77;;;23.10;;
32906;SDS011;19259;51.590;5.320;2022-12-18T02:29:03;73.57;;;23.52;;
32906;SDS011;19259;51.590;5.320;2022-12-18T02:31:35;63.85;;;23.38;;
32906;SDS011;19259;51.590;5.320;2022-12-18T02:34:03;67.45;;;22.95;;
32906;SDS011;19259;51.590;5.320;2022-12-18T02:36:33;66.02;;;22.90;;
32906;SDS011;19259;51.590;5.320;2022-12-18T02:39:05;65.45;;;22.82;;
32906;SDS011;19259;51.590;5.320;2022-12-18T02:41:36;73.33;;;22.22;;
32906;SDS011;19259;51.590;5.320;2022-12-18T02:44:09;67.78;;;22.90;;
32906;SDS011;19259;51.590;5.320;2022-12-18T02:46:45;65.17;;;21.68;;
32906;SDS011;19259;51.590;5.320;2022-12-18T02:49:31;61.33;;;22.87;;
32906;SDS011;19259;51.590;5.320;2022-12-18T02:52:16;56.08;;;22.13;;
32906;SDS011;19259;51.590;5.320;2022-12-18T02:55:07;65.83;;;20.68;;
32906;SDS011;19259;51.590;5.320;2022-12-18T03:00:19;61.57;;;20.67;;
32906;SDS011;19259;51.590;5.320;2022-12-18T03:02:51;59.03;;;22.67;;
32906;SDS011;19259;51.590;5.320;2022-12-18T03:05:31;61.68;;;20.68;;
32906;SDS011;19259;51.590;5.320;2022-12-18T03:08:12;71.62;;;22.50;;
32906;SDS011;19259;51.590;5.320;2022-12-18T03:10:54;65.50;;;21.25;;
32906;SDS011;19259;51.590;5.320;2022-12-18T03:13:31;60.70;;;21.52;;
32906;SDS011;19259;51.590;5.320;2022-12-18T03:16:00;63.98;;;23.52;;
32906;SDS011;19259;51.590;5.320;2022-12-18T03:18:30;66.70;;;22.15;;
32906;SDS011;19259;51.590;5.320;2022-12-18T03:21:07;66.57;;;20.37;;
32906;SDS011;19259;51.590;5.320;2022-12-18T03:23:38;63.25;;;21.25;;
32906;SDS011;19259;51.590;5.320;2022-12-18T03:26:10;62.95;;;21.45;;
32906;SDS011;19259;51.590;5.320;2022-12-18T03:28:38;57.78;;;21.97;;
32906;SDS011;19259;51.590;5.320;2022-12-18T03:31:08;54.23;;;21.82;;
32906;SDS011;19259;51.590;5.320;2022-12-18T03:33:38;57.38;;;21.75;;
32906;SDS011;19259;51.590;5.320;2022-12-18T03:36:14;68.42;;;21.95;;
32906;SDS011;19259;51.590;5.320;2022-12-18T03:38:42;59.40;;;23.02;;
32906;SDS011;19259;51.590;5.320;2022-12-18T03:41:28;57.35;;;21.25;;
32906;SDS011;19259;51.590;5.320;2022-12-18T03:49:51;56.33;;;20.62;;
32906;SDS011;19259;51.590;5.320;2022-12-18T03:52:26;55.20;;;20.40;;
32906;SDS011;19259;51.590;5.320;2022-12-18T03:54:59;55.15;;;19.25;;
32906;SDS011;19259;51.590;5.320;2022-12-18T03:57:28;53.98;;;20.43;;
32906;SDS011;19259;51.590;5.320;2022-12-18T04:00:13;56.70;;;20.20;;
32906;SDS011;19259;51.590;5.320;2022-12-18T04:02:38;53.70;;;18.32;;
32906;SDS011;19259;51.590;5.320;2022-12-18T04:05:10;58.70;;;19.85;;
32906;SDS011;19259;51.590;5.320;2022-12-18T04:07:39;63.35;;;19.75;;
32906;SDS011;19259;51.590;5.320;2022-12-18T04:10:07;54.38;;;20.25;;
32906;SDS011;19259;51.590;5.320;2022-12-18T04:12:37;57.55;;;20.30;;
32906;SDS011;19259;51.590;5.320;2022-12-18T04:15:05;49.90;;;19.52;;
32906;SDS011;19259;51.590;5.320;2022-12-18T04:17:33;57.27;;;20.10;;
32906;SDS011;19259;51.590;5.320;2022-12-18T04:20:01;55.15;;;19.65;;
32906;SDS011;19259;51.590;5.320;2022-12-18T04:22:29;50.38;;;18.82;;
32906;SDS011;19259;51.590;5.320;2022-12-18T04:24:56;52.65;;;18.67;;
32906;SDS011;19259;51.590;5.320;2022-12-18T04:27:24;50.50;;;18.87;;
32906;SDS011;19259;51.590;5.320;2022-12-18T04:29:52;54.25;;;19.05;;
32906;SDS011;19259;51.590;5.320;2022-12-18T04:32:19;49.77;;;17.55;;
32906;SDS011;19259;51.590;5.320;2022-12-18T04:34:46;44.67;;;20.45;;
32906;SDS011;19259;51.590;5.320;2022-12-18T04:37:14;49.25;;;18.12;;
32906;SDS011;19259;51.590;5.320;2022-12-18T04:39:43;46.15;;;16.45;;
32906;SDS011;19259;51.590;5.320;2022-12-18T04:42:11;41.35;;;16.82;;
32906;SDS011;19259;51.590;5.320;2022-12-18T04:44:38;46.90;;;17.45;;
32906;SDS011;19259;51.590;5.320;2022-12-18T04:47:09;43.42;;;15.58;;
32906;SDS011;19259;51.590;5.320;2022-12-18T04:49:36;50.17;;;18.42;;
32906;SDS011;19259;51.590;5.320;2022-12-18T04:52:04;47.08;;;17.48;;
32906;SDS011;19259;51.590;5.320;2022-12-18T04:54:33;50.95;;;16.90;;
32906;SDS011;19259;51.590;5.320;2022-12-18T04:57:00;54.75;;;18.45;;
32906;SDS011;19259;51.590;5.320;2022-12-18T04:59:28;43.13;;;17.60;;
32906;SDS011;19259;51.590;5.320;2022-12-18T05:01:55;45.12;;;16.73;;
32906;SDS011;19259;51.590;5.320;2022-12-18T05:04:23;37.55;;;16.62;;
32906;SDS011;19259;51.590;5.320;2022-12-18T05:06:51;42.33;;;15.93;;
32906;SDS011;19259;51.590;5.320;2022-12-18T05:09:18;44.05;;;16.00;;
32906;SDS011;19259;51.590;5.320;2022-12-18T05:11:46;51.10;;;15.93;;
32906;SDS011;19259;51.590;5.320;2022-12-18T05:14:13;44.08;;;15.03;;
32906;SDS011;19259;51.590;5.320;2022-12-18T05:16:41;42.08;;;16.20;;
32906;SDS011;19259;51.590;5.320;2022-12-18T05:19:09;41.35;;;16.00;;
32906;SDS011;19259;51.590;5.320;2022-12-18T05:21:36;47.25;;;17.40;;
32906;SDS011;19259;51.590;5.320;2022-12-18T05:24:04;42.23;;;15.48;;
32906;SDS011;19259;51.590;5.320;2022-12-18T05:26:32;40.03;;;15.30;;
32906;SDS011;19259;51.590;5.320;2022-12-18T05:28:59;47.75;;;15.98;;
32906;SDS011;19259;51.590;5.320;2022-12-18T05:31:27;42.45;;;16.90;;
32906;SDS011;19259;51.590;5.320;2022-12-18T05:33:54;38.98;;;14.03;;
32906;SDS011;19259;51.590;5.320;2022-12-18T05:36:22;39.70;;;15.30;;
32906;SDS011;19259;51.590;5.320;2022-12-18T05:38:50;37.58;;;14.87;;
32906;SDS011;19259;51.590;5.320;2022-12-18T05:41:17;41.48;;;16.48;;
32906;SDS011;19259;51.590;5.320;2022-12-18T05:43:47;46.90;;;16.50;;
32906;SDS011;19259;51.590;5.320;2022-12-18T05:46:18;38.98;;;15.75;;
32906;SDS011;19259;51.590;5.320;2022-12-18T05:48:46;42.25;;;16.82;;
32906;SDS011;19259;51.590;5.320;2022-12-18T05:51:17;39.15;;;14.73;;
32906;SDS011;19259;51.590;5.320;2022-12-18T05:53:46;44.70;;;15.65;;
32906;SDS011;19259;51.590;5.320;2022-12-18T05:56:21;43.90;;;15.10;;
32906;SDS011;19259;51.590;5.320;2022-12-18T05:58:45;40.92;;;14.93;;
32906;SDS011;19259;51.590;5.320;2022-12-18T06:01:15;37.00;;;14.05;;
32906;SDS011;19259;51.590;5.320;2022-12-18T06:03:44;44.45;;;14.33;;
32906;SDS011;19259;51.590;5.320;2022-12-18T06:06:14;49.90;;;15.75;;
32906;SDS011;19259;51.590;5.320;2022-12-18T06:08:47;47.60;;;15.98;;
32906;SDS011;19259;51.590;5.320;2022-12-18T06:11:19;43.02;;;14.85;;
32906;SDS011;19259;51.590;5.320;2022-12-18T06:13:49;38.95;;;14.83;;
32906;SDS011;19259;51.590;5.320;2022-12-18T06:16:18;39.55;;;15.65;;
32906;SDS011;19259;51.590;5.320;2022-12-18T06:18:46;37.63;;;14.18;;
32906;SDS011;19259;51.590;5.320;2022-12-18T06:21:14;39.23;;;14.15;;
32906;SDS011;19259;51.590;5.320;2022-12-18T06:23:41;42.75;;;15.20;;
32906;SDS011;19259;51.590;5.320;2022-12-18T06:26:12;51.50;;;16.97;;
32906;SDS011;19259;51.590;5.320;2022-12-18T06:28:40;41.98;;;16.32;;
32906;SDS011;19259;51.590;5.320;2022-12-18T06:31:08;43.63;;;16.17;;
32906;SDS011;19259;51.590;5.320;2022-12-18T06:33:36;46.15;;;16.60;;
32906;SDS011;19259;51.590;5.320;2022-12-18T06:36:05;36.53;;;15.25;;
32906;SDS011;19259;51.590;5.320;2022-12-18T06:38:35;39.13;;;15.53;;
32906;SDS011;19259;51.590;5.320;2022-12-18T06:41:08;47.48;;;16.70;;
32906;SDS011;19259;51.590;5.320;2022-12-18T06:43:40;37.25;;;14.98;;
32906;SDS011;19259;51.590;5.320;2022-12-18T06:46:08;42.03;;;14.38;;
32906;SDS011;19259;51.590;5.320;2022-12-18T06:48:36;37.42;;;15.75;;
32906;SDS011;19259;51.590;5.320;2022-12-18T06:51:03;39.60;;;16.02;;
32906;SDS011;19259;51.590;5.320;2022-12-18T06:53:32;42.45;;;14.75;;
32906;SDS011;19259;51.590;5.320;2022-12-18T06:56:03;45.52;;;15.35;;
32906;SDS011;19259;51.590;5.320;2022-12-18T06:58:30;36.13;;;13.93;;
32906;SDS011;19259;51.590;5.320;2022-12-18T07:01:01;47.45;;;16.62;;
32906;SDS011;19259;51.590;5.320;2022-12-18T07:03:30;36.13;;;14.43;;
32906;SDS011;19259;51.590;5.320;2022-12-18T07:05:57;38.17;;;15.63;;
32906;SDS011;19259;51.590;5.320;2022-12-18T07:08:25;39.63;;;15.30;;
32906;SDS011;19259;51.590;5.320;2022-12-18T07:10:52;41.63;;;14.78;;
32906;SDS011;19259;51.590;5.320;2022-12-18T07:13:20;39.98;;;14.78;;
32906;SDS011;19259;51.590;5.320;2022-12-18T07:15:48;37.80;;;14.63;;
32906;SDS011;19259;51.590;5.320;2022-12-18T07:18:18;32.98;;;14.33;;
32906;SDS011;19259;51.590;5.320;2022-12-18T07:20:44;40.15;;;15.40;;
32906;SDS011;19259;51.590;5.320;2022-12-18T07:23:12;35.65;;;13.75;;
32906;SDS011;19259;51.590;5.320;2022-12-18T07:25:40;44.65;;;15.80;;
32906;SDS011;19259;51.590;5.320;2022-12-18T07:28:07;35.08;;;14.45;;
32906;SDS011;19259;51.590;5.320;2022-12-18T07:30:36;40.00;;;15.70;;
32906;SDS011;19259;51.590;5.320;2022-12-18T07:33:05;36.58;;;14.63;;
32906;SDS011;19259;51.590;5.320;2022-12-18T07:35:32;44.53;;;16.50;;
32906;SDS011;19259;51.590;5.320;2022-12-18T07:38:02;41.30;;;15.10;;
32906;SDS011;19259;51.590;5.320;2022-12-18T07:40:29;38.98;;;15.63;;
32906;SDS011;19259;51.590;5.320;2022-12-18T07:42:57;38.48;;;15.85;;
32906;SDS011;19259;51.590;5.320;2022-12-18T07:45:26;40.70;;;14.80;;
32906;SDS011;19259;51.590;5.320;2022-12-18T07:47:55;37.55;;;14.03;;
32906;SDS011;19259;51.590;5.320;2022-12-18T07:50:23;42.60;;;15.63;;
32906;SDS011;19259;51.590;5.320;2022-12-18T07:52:50;41.53;;;15.65;;
32906;SDS011;19259;51.590;5.320;2022-12-18T07:55:18;42.23;;;15.83;;
32906;SDS011;19259;51.590;5.320;2022-12-18T07:57:45;36.65;;;15.13;;
32906;SDS011;19259;51.590;5.320;2022-12-18T08:00:13;44.88;;;16.20;;
32906;SDS011;19259;51.590;5.320;2022-12-18T08:02:42;42.25;;;15.48;;
32906;SDS011;19259;51.590;5.320;2022-12-18T08:05:09;46.95;;;17.15;;
32906;SDS011;19259;51.590;5.320;2022-12-18T08:07:38;37.63;;;16.02;;
32906;SDS011;19259;51.590;5.320;2022-12-18T08:10:06;41.25;;;15.50;;
32906;SDS011;19259;51.590;5.320;2022-12-18T08:12:34;39.27;;;16.02;;
32906;SDS011;19259;51.590;5.320;2022-12-18T08:15:02;50.75;;;15.98;;
32906;SDS011;19259;51.590;5.320;2022-12-18T08:17:29;38.40;;;15.45;;
32906;SDS011;19259;51.590;5.320;2022-12-18T08:19:57;48.38;;;16.42;;
32906;SDS011;19259;51.590;5.320;2022-12-18T08:22:25;42.08;;;15.95;;
32906;SDS011;19259;51.590;5.320;2022-12-18T08:24:52;42.80;;;14.98;;
32906;SDS011;19259;51.590;5.320;2022-12-18T08:27:20;45.73;;;17.25;;
32906;SDS011;19259;51.590;5.320;2022-12-18T08:29:47;37.25;;;15.13;;
32906;SDS011;19259;51.590;5.320;2022-12-18T08:32:15;50.08;;;15.78;;
32906;SDS011;19259;51.590;5.320;2022-12-18T08:34:42;41.92;;;16.12;;
32906;SDS011;19259;51.590;5.320;2022-12-18T08:37:10;43.33;;;18.02;;
32906;SDS011;19259;51.590;5.320;2022-12-18T08:39:38;45.63;;;17.07;;
32906;SDS011;19259;51.590;5.320;2022-12-18T08:42:05;42.13;;;16.62;;
32906;SDS011;19259;51.590;5.320;2022-12-18T08:44:51;40.85;;;15.93;;
32906;SDS011;19259;51.590;5.320;2022-12-18T08:47:18;42.33;;;16.60;;
32906;SDS011;19259;51.590;5.320;2022-12-18T08:49:46;38.08;;;14.80;;
32906;SDS011;19259;51.590;5.320;2022-12-18T08:52:13;40.40;;;16.23;;
32906;SDS011;19259;51.590;5.320;2022-12-18T08:54:41;42.62;;;17.42;;
32906;SDS011;19259;51.590;5.320;2022-12-18T08:57:09;43.90;;;15.88;;
32906;SDS011;19259;51.590;5.320;2022-12-18T08:59:36;44.05;;;17.12;;
32906;SDS011;19259;51.590;5.320;2022-12-18T09:02:04;36.63;;;15.35;;
32906;SDS011;19259;51.590;5.320;2022-12-18T09:04:32;38.02;;;17.00;;
32906;SDS011;19259;51.590;5.320;2022-12-18T09:06:59;35.48;;;15.40;;
32906;SDS011;19259;51.590;5.320;2022-12-18T09:09:27;37.55;;;16.45;;
32906;SDS011;19259;51.590;5.320;2022-12-18T09:11:55;44.73;;;16.35;;
32906;SDS011;19259;51.590;5.320;2022-12-18T09:14:22;40.25;;;15.75;;
32906;SDS011;19259;51.590;5.320;2022-12-18T09:16:50;38.50;;;14.75;;
32906;SDS011;19259;51.590;5.320;2022-12-18T09:19:17;40.55;;;15.88;;
32906;SDS011;19259;51.590;5.320;2022-12-18T09:21:45;38.45;;;14.93;;
32906;SDS011;19259;51.590;5.320;2022-12-18T09:24:13;39.18;;;14.40;;
32906;SDS011;19259;51.590;5.320;2022-12-18T09:26:41;42.60;;;14.90;;
32906;SDS011;19259;51.590;5.320;2022-12-18T09:29:08;42.53;;;16.00;;
32906;SDS011;19259;51.590;5.320;2022-12-18T09:31:36;38.02;;;15.60;;
32906;SDS011;19259;51.590;5.320;2022-12-18T09:34:04;34.58;;;15.53;;
32906;SDS011;19259;51.590;5.320;2022-12-18T09:36:32;35.83;;;15.03;;
32906;SDS011;19259;51.590;5.320;2022-12-18T09:39:00;42.70;;;16.82;;
32906;SDS011;19259;51.590;5.320;2022-12-18T09:47:30;40.43;;;16.23;;
32906;SDS011;19259;51.590;5.320;2022-12-18T09:49:34;42.65;;;18.23;;
32906;SDS011;19259;51.590;5.320;2022-12-18T09:52:17;39.20;;;16.32;;
32906;SDS011;19259;51.590;5.320;2022-12-18T09:54:51;31.82;;;12.55;;
32906;SDS011;19259;51.590;5.320;2022-12-18T09:57:17;37.48;;;16.45;;
32906;SDS011;19259;51.590;5.320;2022-12-18T09:59:53;45.92;;;16.90;;
32906;SDS011;19259;51.590;5.320;2022-12-18T10:02:21;42.08;;;15.35;;
32906;SDS011;19259;51.590;5.320;2022-12-18T10:05:02;38.48;;;16.37;;
32906;SDS011;19259;51.590;5.320;2022-12-18T10:07:52;37.93;;;15.23;;
32906;SDS011;19259;51.590;5.320;2022-12-18T10:19:11;37.17;;;14.30;;
32906;SDS011;19259;51.590;5.320;2022-12-18T10:24:31;27.47;;;11.50;;
32906;SDS011;19259;51.590;5.320;2022-12-18T10:27:17;36.65;;;13.83;;
32906;SDS011;19259;51.590;5.320;2022-12-18T10:29:46;35.15;;;14.25;;
32906;SDS011;19259;51.590;5.320;2022-12-18T10:32:15;36.70;;;15.50;;
32906;SDS011;19259;51.590;5.320;2022-12-18T10:34:46;32.90;;;13.83;;
32906;SDS011;19259;51.590;5.320;2022-12-18T10:37:19;35.90;;;13.98;;
32906;SDS011;19259;51.590;5.320;2022-12-18T10:40:08;34.33;;;14.13;;
32906;SDS011;19259;51.590;5.320;2022-12-18T10:42:37;31.37;;;13.13;;
32906;SDS011;19259;51.590;5.320;2022-12-18T10:45:10;31.77;;;14.35;;
32906;SDS011;19259;51.590;5.320;2022-12-18T10:47:46;36.08;;;14.55;;
32906;SDS011;19259;51.590;5.320;2022-12-18T10:50:28;38.30;;;14.38;;
32906;SDS011;19259;51.590;5.320;2022-12-18T10:52:58;35.60;;;14.65;;
32906;SDS011;19259;51.590;5.320;2022-12-18T10:55:30;34.03;;;13.98;;
32906;SDS011;19259;51.590;5.320;2022-12-18T11:03:46;35.50;;;14.05;;
32906;SDS011;19259;51.590;5.320;2022-12-18T11:06:17;35.25;;;13.88;;
32906;SDS011;19259;51.590;5.320;2022-12-18T11:08:59;29.23;;;11.57;;
32906;SDS011;19259;51.590;5.320;2022-12-18T11:11:31;36.40;;;15.63;;
32906;SDS011;19259;51.590;5.320;2022-12-18T11:16:32;33.00;;;13.80;;
32906;SDS011;19259;51.590;5.320;2022-12-18T11:22:23;32.55;;;13.83;;
32906;SDS011;19259;51.590;5.320;2022-12-18T11:24:55;33.80;;;14.70;;
32906;SDS011;19259;51.590;5.320;2022-12-18T11:29:49;34.27;;;13.08;;
32906;SDS011;19259;51.590;5.320;2022-12-18T11:32:23;35.78;;;14.75;;
32906;SDS011;19259;51.590;5.320;2022-12-18T11:37:19;34.05;;;13.38;;
32906;SDS011;19259;51.590;5.320;2022-12-18T11:39:52;32.98;;;12.73;;
32906;SDS011;19259;51.590;5.320;2022-12-18T11:42:20;42.58;;;17.95;;
32906;SDS011;19259;51.590;5.320;2022-12-18T11:47:37;39.03;;;17.02;;
32906;SDS011;19259;51.590;5.320;2022-12-18T11:50:20;35.00;;;15.10;;
32906;SDS011;19259;51.590;5.320;2022-12-18T11:52:44;37.98;;;14.85;;
32906;SDS011;19259;51.590;5.320;2022-12-18T11:55:27;34.25;;;15.58;;
32906;SDS011;19259;51.590;5.320;2022-12-18T12:06:21;35.10;;;13.90;;
32906;SDS011;19259;51.590;5.320;2022-12-18T12:08:59;37.67;;;16.57;;
32906;SDS011;19259;51.590;5.320;2022-12-18T12:11:39;47.20;;;20.27;;
32906;SDS011;19259;51.590;5.320;2022-12-18T12:16:58;35.03;;;15.88;;
32906;SDS011;19259;51.590;5.320;2022-12-18T12:33:50;31.02;;;14.58;;
32906;SDS011;19259;51.590;5.320;2022-12-18T12:38:53;37.38;;;14.93;;
32906;SDS011;19259;51.590;5.320;2022-12-18T12:41:25;36.42;;;14.85;;
32906;SDS011;19259;51.590;5.320;2022-12-18T12:44:22;34.15;;;14.73;;
32906;SDS011;19259;51.590;5.320;2022-12-18T12:46:50;36.93;;;14.50;;
32906;SDS011;19259;51.590;5.320;2022-12-18T12:49:21;36.20;;;14.18;;
32906;SDS011;19259;51.590;5.320;2022-12-18T12:52:04;34.40;;;15.13;;
32906;SDS011;19259;51.590;5.320;2022-12-18T12:54:31;36.75;;;15.28;;
32906;SDS011;19259;51.590;5.320;2022-12-18T13:02:51;35.13;;;14.45;;
32906;SDS011;19259;51.590;5.320;2022-12-18T13:08:09;32.25;;;14.38;;
32906;SDS011;19259;51.590;5.320;2022-12-18T13:10:40;37.60;;;15.40;;
32906;SDS011;19259;51.590;5.320;2022-12-18T13:13:09;34.00;;;13.83;;
32906;SDS011;19259;51.590;5.320;2022-12-18T13:15:46;33.40;;;14.65;;
32906;SDS011;19259;51.590;5.320;2022-12-18T13:18:20;33.08;;;15.28;;
32906;SDS011;19259;51.590;5.320;2022-12-18T13:25:59;34.20;;;13.25;;
32906;SDS011;19259;51.590;5.320;2022-12-18T13:31:57;36.03;;;13.88;;
32906;SDS011;19259;51.590;5.320;2022-12-18T13:34:43;30.32;;;13.48;;
32906;SDS011;19259;51.590;5.320;2022-12-18T13:36:46;31.37;;;13.20;;
32906;SDS011;19259;51.590;5.320;2022-12-18T13:42:34;34.85;;;14.43;;
32906;SDS011;19259;51.590;5.320;2022-12-18T13:47:27;47.13;;;16.32;;
32906;SDS011;19259;51.590;5.320;2022-12-18T13:49:56;37.03;;;14.47;;
32906;SDS011;19259;51.590;5.320;2022-12-18T13:52:26;36.58;;;15.65;;
32906;SDS011;19259;51.590;5.320;2022-12-18T13:54:58;24.67;;;10.53;;
32906;SDS011;19259;51.590;5.320;2022-12-18T13:57:31;45.55;;;16.00;;
32906;SDS011;19259;51.590;5.320;2022-12-18T14:02:51;36.90;;;13.70;;
32906;SDS011;19259;51.590;5.320;2022-12-18T14:05:22;32.90;;;14.63;;
32906;SDS011;19259;51.590;5.320;2022-12-18T14:07:55;32.55;;;14.35;;
32906;SDS011;19259;51.590;5.320;2022-12-18T14:10:29;39.63;;;15.75;;
32906;SDS011;19259;51.590;5.320;2022-12-18T14:12:56;37.28;;;16.62;;
32906;SDS011;19259;51.590;5.320;2022-12-18T14:18:12;38.10;;;14.03;;
32906;SDS011;19259;51.590;5.320;2022-12-18T14:20:46;45.40;;;19.07;;
32906;SDS011;19259;51.590;5.320;2022-12-18T14:23:29;43.00;;;16.75;;
32906;SDS011;19259;51.590;5.320;2022-12-18T14:25:58;47.33;;;19.27;;
32906;SDS011;19259;51.590;5.320;2022-12-18T14:28:26;59.55;;;24.45;;
32906;SDS011;19259;51.590;5.320;2022-12-18T14:30:54;44.83;;;18.10;;
32906;SDS011;19259;51.590;5.320;2022-12-18T14:33:23;42.00;;;17.87;;
32906;SDS011;19259;51.590;5.320;2022-12-18T14:35:59;43.23;;;16.10;;
32906;SDS011;19259;51.590;5.320;2022-12-18T14:41:03;41.83;;;15.98;;
32906;SDS011;19259;51.590;5.320;2022-12-18T14:43:38;37.23;;;15.63;;
32906;SDS011;19259;51.590;5.320;2022-12-18T14:46:03;42.38;;;16.52;;
32906;SDS011;19259;51.590;5.320;2022-12-18T14:51:16;35.00;;;14.95;;
32906;SDS011;19259;51.590;5.320;2022-12-18T14:53:46;33.45;;;15.83;;
32906;SDS011;19259;51.590;5.320;2022-12-18T14:56:21;41.68;;;14.78;;
32906;SDS011;19259;51.590;5.320;2022-12-18T15:01:46;33.25;;;14.78;;
32906;SDS011;19259;51.590;5.320;2022-12-18T15:04:26;38.83;;;16.25;;
32906;SDS011;19259;51.590;5.320;2022-12-18T15:07:10;41.05;;;20.62;;
32906;SDS011;19259;51.590;5.320;2022-12-18T15:09:40;40.52;;;16.82;;
32906;SDS011;19259;51.590;5.320;2022-12-18T15:12:19;40.10;;;15.80;;
32906;SDS011;19259;51.590;5.320;2022-12-18T15:15:02;42.60;;;16.17;;
32906;SDS011;19259;51.590;5.320;2022-12-18T15:17:30;38.60;;;16.02;;
32906;SDS011;19259;51.590;5.320;2022-12-18T15:20:03;38.60;;;16.23;;
32906;SDS011;19259;51.590;5.320;2022-12-18T15:22:35;38.65;;;15.48;;
32906;SDS011;19259;51.590;5.320;2022-12-18T15:25:04;63.05;;;24.40;;
32906;SDS011;19259;51.590;5.320;2022-12-18T15:27:35;62.58;;;20.48;;
32906;SDS011;19259;51.590;5.320;2022-12-18T15:37:45;33.55;;;15.55;;
32906;SDS011;19259;51.590;5.320;2022-12-18T15:40:14;34.95;;;16.70;;
32906;SDS011;19259;51.590;5.320;2022-12-18T15:42:43;37.28;;;16.12;;
32906;SDS011;19259;51.590;5.320;2022-12-18T15:45:28;40.38;;;15.70;;
32906;SDS011;19259;51.590;5.320;2022-12-18T15:47:56;35.73;;;15.10;;
32906;SDS011;19259;51.590;5.320;2022-12-18T15:50:24;34.60;;;14.05;;
32906;SDS011;19259;51.590;5.320;2022-12-18T15:52:52;43.08;;;16.87;;
32906;SDS011;19259;51.590;5.320;2022-12-18T15:55:22;37.67;;;16.27;;
32906;SDS011;19259;51.590;5.320;2022-12-18T15:58:08;35.23;;;15.25;;
32906;SDS011;19259;51.590;5.320;2022-12-18T16:00:37;36.77;;;15.68;;
32906;SDS011;19259;51.590;5.320;2022-12-18T16:03:06;33.35;;;14.80;;
32906;SDS011;19259;51.590;5.320;2022-12-18T16:05:36;33.70;;;14.60;;
32906;SDS011;19259;51.590;5.320;2022-12-18T16:08:03;47.53;;;22.50;;
32906;SDS011;19259;51.590;5.320;2022-12-18T16:10:31;41.68;;;17.02;;
32906;SDS011;19259;51.590;5.320;2022-12-18T16:12:58;36.73;;;15.38;;
32906;SDS011;19259;51.590;5.320;2022-12-18T16:15:26;47.23;;;18.27;;
32906;SDS011;19259;51.590;5.320;2022-12-18T16:17:53;38.78;;;17.10;;
32906;SDS011;19259;51.590;5.320;2022-12-18T16:20:21;35.90;;;15.30;;
32906;SDS011;19259;51.590;5.320;2022-12-18T16:22:49;38.65;;;15.40;;
32906;SDS011;19259;51.590;5.320;2022-12-18T16:25:23;32.05;;;13.28;;
32906;SDS011;19259;51.590;5.320;2022-12-18T16:27:51;40.05;;;15.28;;
32906;SDS011;19259;51.590;5.320;2022-12-18T16:30:21;37.58;;;15.63;;
32906;SDS011;19259;51.590;5.320;2022-12-18T16:32:53;35.40;;;15.08;;
32906;SDS011;19259;51.590;5.320;2022-12-18T16:35:21;33.95;;;14.58;;
32906;SDS011;19259;51.590;5.320;2022-12-18T16:37:49;35.65;;;15.95;;
32906;SDS011;19259;51.590;5.320;2022-12-18T16:40:17;36.17;;;15.23;;
32906;SDS011;19259;51.590;5.320;2022-12-18T16:42:45;42.93;;;15.18;;
32906;SDS011;19259;51.590;5.320;2022-12-18T16:45:14;36.93;;;15.43;;
32906;SDS011;19259;51.590;5.320;2022-12-18T16:47:43;35.28;;;15.83;;
32906;SDS011;19259;51.590;5.320;2022-12-18T16:50:11;37.38;;;15.93;;